Time;durP1;ratioP1;P1;durP2;ratioP2;P2;SDS_P1;SDS_P2;PMS_P1;PMS_P2;Temp;Humidity;BMP_temperature;BMP_pressure;BME280_temperature;BME280_humidity;BME280_pressure;Samples;Min_cycle;Max_cycle;Signal;HPM_P1;HPM_P2
2021/12/12 00:00:20;;;;;;;;;;;;;;;;;;5087542;28;19913;-63
2021/12/12 00:02:55;;;;;;;;;;;;;;;;;;5091829;28;19920;-63
2021/12/12 00:05:21;;;;;;;;;;;;;;;;;;5084785;28;19920;-65
2021/12/12 00:07:46;;;;;;;;;;;;;;;;;;5091826;28;19912;-64
2021/12/12 00:10:11;;;;;;;;;;;;;;;;;;5088277;28;19919;-64
2021/12/12 00:12:36;;;;;;;;;;;;;;;;;;5085671;28;20641;-64
2021/12/12 00:15:01;;;;;;;;;;;;;;;;;;5089769;28;20287;-64
2021/12/12 00:17:26;;;;;;;;;;;;;;;;;;5086709;28;19920;-63
2021/12/12 00:19:51;;;;;;;;;;;;;;;;;;5088515;28;20406;-64
2021/12/12 00:22:16;;;;;;;;;;;;;;;;;;5086993;28;19916;-63
2021/12/12 00:24:41;;;;;;;;;;;;;;;;;;5086954;28;19916;-63
2021/12/12 00:27:06;;;;;;;;;;;;;;;;;;5085507;28;19978;-64
2021/12/12 00:29:32;;;;;;;;;;;;;;;;;;5086570;28;19975;-64
2021/12/12 00:31:58;;;;;;;;;;;;;;;;;;5083508;28;19919;-64
2021/12/12 00:34:23;;;;;;;;;;;;;;;;;;5085142;28;20288;-64
2021/12/12 00:36:48;;;;;;;;;;;;;;;;;;5089011;28;20271;-64
2021/12/12 00:39:13;;;;;;;;;;;;;;;;;;5088061;28;20501;-63
2021/12/12 00:41:38;;;;;;;;;;;;;;;;;;5080754;28;19920;-63
2021/12/12 00:44:03;;;;;;;;;;;;;;;;;;5086996;28;20356;-63
2021/12/12 00:46:28;;;;;;;;;;;;;;;;;;5089358;28;19912;-63
2021/12/12 00:48:53;;;;;;;;;;;;;;;;;;5084815;28;19981;-63
2021/12/12 00:51:18;;;;;;;;;;;;;;;;;;5087437;28;20384;-63
2021/12/12 00:53:43;;;;;;;;;;;;;;;;;;5089545;28;20314;-63
2021/12/12 00:56:08;;;;;;;;;;;;;;;;;;5084081;28;19951;-63
2021/12/12 00:58:33;;;;;;;;;;;;;;;;;;5090815;28;20334;-64
2021/12/12 01:01:00;;;;;;;;;;;;;;;;;;5089884;28;19916;-64
2021/12/12 01:03:26;;;;;;;;;;;;;;;;;;5089490;28;19954;-64
2021/12/12 01:05:51;;;;;;;;;;;;;;;;;;5090085;28;19955;-64
2021/12/12 01:08:16;;;;;;;;;;;;;;;;;;5089848;28;20062;-64
2021/12/12 01:10:41;;;;;;;;;;;;;;;;;;5082175;28;20402;-62
2021/12/12 01:13:06;;;;;;;;;;;;;;;;;;5091945;28;20375;-64
2021/12/12 01:15:31;;;;;;;;;;;;;;;;;;5081529;28;19912;-64
2021/12/12 01:17:56;;;;;;;;;;;;;;;;;;5095017;28;20382;-64
2021/12/12 01:20:21;;;;;;;;;;;;;;;;;;5089961;28;20003;-64
2021/12/12 01:22:46;;;;;;;;;;;;;;;;;;5068112;28;20379;-63
2021/12/12 01:25:12;;;;;;;;;;;;;;;;;;5082917;28;19913;-63
2021/12/12 01:27:37;;;;;;;;;;;;;;;;;;5084926;28;19920;-63
2021/12/12 01:30:02;;;;;;;;;;;;;;;;;;5087441;28;19916;-63
2021/12/12 01:32:31;;;;;;;;;;;;;;;;;;5084613;28;19913;-63
2021/12/12 01:34:57;;;;;;;;;;;;;;;;;;5086747;28;19916;-63
2021/12/12 01:39:47;;;;;;;;;;;;;;;;;;5084901;28;19923;-62
2021/12/12 01:42:12;;;;;;;;;;;;;;;;;;5090479;28;20358;-63
2021/12/12 01:44:37;;;;;;;;;;;;;;;;;;5087839;28;19913;-63
2021/12/12 01:47:03;;;;;;;;;;;;;;;;;;5089363;28;19912;-63
2021/12/12 01:49:28;;;;;;;;;;;;;;;;;;5088122;28;19920;-63
2021/12/12 01:51:53;;;;;;;;;;;;;;;;;;5088033;28;19912;-63
2021/12/12 01:54:18;;;;;;;;;;;;;;;;;;5085768;28;19912;-63
2021/12/12 01:56:49;;;;;;;;;;;;;;;;;;5088616;28;20024;-63
2021/12/12 01:59:14;;;;;;;;;;;;;;;;;;5088290;28;20288;-63
2021/12/12 02:01:39;;;;;;;;;;;;;;;;;;5088166;28;20387;-61
2021/12/12 02:04:04;;;;;;;;;;;;;;;;;;5089297;28;20007;-61
2021/12/12 02:06:29;;;;;;;;;;;;;;;;;;5088802;28;19920;-61
2021/12/12 02:08:54;;;;;;;;;;;;;;;;;;5087808;28;19912;-61
2021/12/12 02:11:19;;;;;;;;;;;;;;;;;;5090198;28;19912;-61
2021/12/12 02:13:44;;;;;;;;;;;;;;;;;;5088196;28;19916;-62
2021/12/12 02:16:09;;;;;;;;;;;;;;;;;;5087479;28;19919;-61
2021/12/12 02:18:37;;;;;;;;;;;;;;;;;;5090101;28;19928;-62
2021/12/12 02:21:15;;;;;;;;;;;;;;;;;;5087602;28;20360;-62
2021/12/12 02:37:10;;;;;;;;;;;;;;;;;;5061507;28;19919;-62
2021/12/12 02:39:35;;;;;;;;;;;;;;;;;;5065814;28;20139;-62
2021/12/12 02:42:00;;;;;;;;;;;;;;;;;;5067662;28;19977;-62
2021/12/12 02:44:29;;;;;;;;;;;;;;;;;;5064854;28;19959;-61
2021/12/12 02:46:56;;;;;;;;;;;;;;;;;;5067811;28;19916;-62
2021/12/12 02:49:38;;;;;;;;;;;;;;;;;;5065199;28;19946;-62
2021/12/12 02:52:03;;;;;;;;;;;;;;;;;;5069452;28;19913;-63
2021/12/12 02:54:28;;;;;;;;;;;;;;;;;;5067908;28;20350;-62
2021/12/12 02:56:53;;;;;;;;;;;;;;;;;;5070282;28;19963;-62
2021/12/12 02:59:18;;;;;;;;;;;;;;;;;;5067385;28;19913;-62
2021/12/12 03:01:43;;;;;;;;;;;;;;;;;;5071545;28;19970;-62
2021/12/12 03:04:08;;;;;;;;;;;;;;;;;;5066770;28;19920;-62
2021/12/12 03:06:33;;;;;;;;;;;;;;;;;;5066350;28;19919;-63
2021/12/12 03:08:58;;;;;;;;;;;;;;;;;;5061128;28;19975;-63
2021/12/12 03:11:27;;;;;;;;;;;;;;;;;;5063996;28;20380;-63
2021/12/12 03:13:52;;;;;;;;;;;;;;;;;;5065445;28;20000;-62
2021/12/12 03:16:17;;;;;;;;;;;;;;;;;;5066349;28;20050;-61
2021/12/12 03:18:42;;;;;;;;;;;;;;;;;;5063603;28;19989;-61
2021/12/12 03:21:14;;;;;;;;;;;;;;;;;;5066241;28;19924;-62
2021/12/12 03:23:39;;;;;;;;;;;;;;;;;;5071325;28;19940;-62
2021/12/12 03:26:04;;;;;;;;;;;;;;;;;;5070019;28;19959;-62
2021/12/12 03:28:30;;;;;;;;;;;;;;;;;;5068095;28;19986;-62
2021/12/12 03:30:55;;;;;;;;;;;;;;;;;;5068038;28;19927;-62
2021/12/12 03:33:20;;;;;;;;;;;;;;;;;;5066023;28;19920;-62
2021/12/12 03:35:45;;;;;;;;;;;;;;;;;;5068227;28;20364;-62
2021/12/12 03:38:10;;;;;;;;;;;;;;;;;;5071770;28;19919;-62
2021/12/12 03:40:35;;;;;;;;;;;;;;;;;;5066725;28;19940;-62
2021/12/12 03:43:00;;;;;;;;;;;;;;;;;;5065833;28;19924;-62
2021/12/12 03:45:25;;;;;;;;;;;;;;;;;;5061021;28;19923;-61
2021/12/12 03:47:50;;;;;;;;;;;;;;;;;;5067723;28;19966;-62
2021/12/12 03:50:15;;;;;;;;;;;;;;;;;;5068760;28;19978;-63
2021/12/12 03:52:41;;;;;;;;;;;;;;;;;;5071351;28;19918;-63
2021/12/12 03:55:06;;;;;;;;;;;;;;;;;;5065880;28;19920;-63
2021/12/12 03:57:31;;;;;;;;;;;;;;;;;;5066926;28;20381;-63
2021/12/12 03:59:56;;;;;;;;;;;;;;;;;;5068180;28;19923;-63
2021/12/12 04:02:21;;;;;;;;;;;;;;;;;;5067464;28;19955;-63
2021/12/12 04:04:46;;;;;;;;;;;;;;;;;;5067988;28;20387;-62
2021/12/12 04:07:11;;;;;;;;;;;;;;;;;;5069185;28;19920;-63
2021/12/12 04:09:36;;;;;;;;;;;;;;;;;;5068204;28;19923;-62
2021/12/12 04:12:01;;;;;;;;;;;;;;;;;;5063389;28;20008;-63
2021/12/12 04:14:26;;;;;;;;;;;;;;;;;;5068165;28;19924;-63
2021/12/12 04:16:51;;;;;;;;;;;;;;;;;;5068391;28;19913;-62
2021/12/12 04:19:16;;;;;;;;;;;;;;;;;;5064871;28;20010;-61
2021/12/12 04:21:41;;;;;;;;;;;;;;;;;;5065312;28;20372;-61
2021/12/12 04:24:06;;;;;;;;;;;;;;;;;;5067270;28;19924;-62
2021/12/12 04:26:32;;;;;;;;;;;;;;;;;;5066908;28;20193;-61
2021/12/12 04:28:57;;;;;;;;;;;;;;;;;;5066692;28;20261;-62
2021/12/12 04:31:22;;;;;;;;;;;;;;;;;;5051796;28;19912;-63
2021/12/12 04:33:47;;;;;;;;;;;;;;;;;;5070053;28;19912;-62
2021/12/12 04:36:12;;;;;;;;;;;;;;;;;;5093580;28;19943;-61
2021/12/12 04:38:37;;;;;;;;;;;;;;;;;;5083947;28;19920;-61
2021/12/12 04:41:02;;;;;;;;;;;;;;;;;;5088452;28;19989;-62
2021/12/12 04:43:27;;;;;;;;;;;;;;;;;;5084357;28;20691;-61
2021/12/12 04:46:02;;;;;;;;;;;;;;;;;;5085106;28;19956;-61
2021/12/12 04:51:11;;;;;;;;;;;;;;;;;;5082355;28;19919;-62
2021/12/12 04:53:36;;;;;;;;;;;;;;;;;;5086985;28;19921;-62
2021/12/12 04:56:01;;;;;;;;;;;;;;;;;;5084906;28;19981;-62
2021/12/12 04:58:27;;;;;;;;;;;;;;;;;;5084133;28;20015;-63
2021/12/12 05:00:52;;;;;;;;;;;;;;;;;;5087633;28;20272;-62
2021/12/12 05:03:17;;;;;;;;;;;;;;;;;;5084794;28;19920;-62
2021/12/12 05:05:42;;;;;;;;;;;;;;;;;;5085455;28;20535;-63
2021/12/12 05:08:07;;;;;;;;;;;;;;;;;;5088586;28;20332;-63
2021/12/12 05:10:32;;;;;;;;;;;;;;;;;;5085775;28;19920;-62
2021/12/12 05:12:57;;;;;;;;;;;;;;;;;;5087683;28;20389;-63
2021/12/12 05:15:22;;;;;;;;;;;;;;;;;;5088389;28;19918;-62
2021/12/12 05:17:47;;;;;;;;;;;;;;;;;;5087065;28;20329;-62
2021/12/12 05:20:12;;;;;;;;;;;;;;;;;;5086469;28;19919;-62
2021/12/12 05:22:37;;;;;;;;;;;;;;;;;;5083873;28;19923;-62
2021/12/12 05:25:03;;;;;;;;;;;;;;;;;;5081699;28;20439;-63
2021/12/12 05:27:28;;;;;;;;;;;;;;;;;;5086843;28;19919;-63
2021/12/12 05:29:53;;;;;;;;;;;;;;;;;;5085020;28;19920;-62
2021/12/12 05:32:18;;;;;;;;;;;;;;;;;;5082609;28;19912;-62
2021/12/12 05:34:43;;;;;;;;;;;;;;;;;;5087152;28;20007;-62
2021/12/12 05:37:08;;;;;;;;;;;;;;;;;;5090422;28;19913;-62
2021/12/12 05:39:33;;;;;;;;;;;;;;;;;;5086629;28;19912;-62
2021/12/12 05:41:58;;;;;;;;;;;;;;;;;;5088652;28;20345;-62
2021/12/12 05:44:23;;;;;;;;;;;;;;;;;;5085975;28;19920;-62
2021/12/12 05:46:48;;;;;;;;;;;;;;;;;;5083074;28;19912;-62
2021/12/12 05:49:13;;;;;;;;;;;;;;;;;;5083486;28;20514;-62
2021/12/12 05:51:38;;;;;;;;;;;;;;;;;;5082354;28;19943;-62
2021/12/12 05:54:03;;;;;;;;;;;;;;;;;;5081887;28;19979;-62
2021/12/12 05:56:28;;;;;;;;;;;;;;;;;;5088166;28;19955;-62
2021/12/12 05:58:54;;;;;;;;;;;;;;;;;;5086637;28;19920;-62
2021/12/12 06:01:19;;;;;;;;;;;;;;;;;;5079035;28;19916;-62
2021/12/12 06:03:44;;;;;;;;;;;;;;;;;;5085199;28;20066;-62
2021/12/12 06:06:09;;;;;;;;;;;;;;;;;;5079608;28;19912;-62
2021/12/12 06:08:34;;;;;;;;;;;;;;;;;;5080273;28;20007;-62
2021/12/12 06:10:59;;;;;;;;;;;;;;;;;;5087297;28;19946;-63
2021/12/12 06:13:24;;;;;;;;;;;;;;;;;;5081691;28;20164;-63
2021/12/12 06:15:50;;;;;;;;;;;;;;;;;;5083842;28;19961;-62
2021/12/12 06:18:15;;;;;;;;;;;;;;;;;;5083525;28;20044;-63
2021/12/12 06:20:41;;;;;;;;;;;;;;;;;;5086438;28;19991;-63
2021/12/12 06:23:06;;;;;;;;;;;;;;;;;;5084410;28;20352;-63
2021/12/12 06:25:31;;;;;;;;;;;;;;;;;;5093917;28;19920;-63
2021/12/12 06:27:56;;;;;;;;;;;;;;;;;;5088552;28;19916;-62
2021/12/12 06:30:21;;;;;;;;;;;;;;;;;;5088199;28;20003;-63
2021/12/12 06:32:46;;;;;;;;;;;;;;;;;;5089130;28;20010;-62
2021/12/12 06:35:11;;;;;;;;;;;;;;;;;;5087697;28;19916;-63
2021/12/12 06:37:36;;;;;;;;;;;;;;;;;;5083962;28;20406;-63
2021/12/12 06:40:01;;;;;;;;;;;;;;;;;;5082314;28;19963;-63
2021/12/12 06:42:26;;;;;;;;;;;;;;;;;;5089995;28;20286;-63
2021/12/12 06:44:51;;;;;;;;;;;;;;;;;;5083060;28;19920;-63
2021/12/12 06:47:16;;;;;;;;;;;;;;;;;;5084237;28;19989;-63
2021/12/12 06:49:41;;;;;;;;;;;;;;;;;;5086677;28;19919;-63
2021/12/12 06:52:07;;;;;;;;;;;;;;;;;;5087412;28;19916;-63
2021/12/12 06:54:32;;;;;;;;;;;;;;;;;;5091135;28;20249;-63
2021/12/12 06:56:57;;;;;;;;;;;;;;;;;;5090284;28;19912;-63
2021/12/12 06:59:22;;;;;;;;;;;;;;;;;;5086022;28;20006;-63
2021/12/12 07:01:47;;;;;;;;;;;;;;;;;;5082385;28;20382;-63
2021/12/12 07:04:13;;;;;;;;;;;;;;;;;;5087656;28;19912;-63
2021/12/12 07:06:38;;;;;;;;;;;;;;;;;;5085349;28;19912;-63
2021/12/12 07:09:03;;;;;;;;;;;;;;;;;;5088253;28;19928;-63
2021/12/12 07:11:28;;;;;;;;;;;;;;;;;;5091598;28;20268;-63
2021/12/12 07:13:53;;;;;;;;;;;;;;;;;;5088415;28;20403;-63
2021/12/12 07:16:19;;;;;;;;;;;;;;;;;;5092257;28;19931;-63
2021/12/12 07:18:45;;;;;;;;;;;;;;;;;;5087869;28;19912;-63
2021/12/12 07:21:10;;;;;;;;;;;;;;;;;;5089015;28;19987;-62
2021/12/12 07:23:35;;;;;;;;;;;;;;;;;;5090720;28;20053;-62
2021/12/12 07:26:00;;;;;;;;;;;;;;;;;;5088711;28;19912;-62
2021/12/12 07:28:25;;;;;;;;;;;;;;;;;;5087182;28;19969;-62
2021/12/12 07:30:50;;;;;;;;;;;;;;;;;;5084435;28;19921;-62
2021/12/12 07:33:15;;;;;;;;;;;;;;;;;;5086581;28;20142;-62
2021/12/12 07:35:40;;;;;;;;;;;;;;;;;;5087270;28;20037;-63
2021/12/12 07:38:05;;;;;;;;;;;;;;;;;;5090426;28;19935;-62
2021/12/12 07:40:30;;;;;;;;;;;;;;;;;;5087483;28;19916;-62
2021/12/12 07:42:55;;;;;;;;;;;;;;;;;;5084019;28;19924;-63
2021/12/12 07:45:21;;;;;;;;;;;;;;;;;;5090721;28;19957;-62
2021/12/12 07:47:46;;;;;;;;;;;;;;;;;;5083155;28;19919;-63
2021/12/12 07:50:11;;;;;;;;;;;;;;;;;;5085002;28;20360;-63
2021/12/12 07:52:36;;;;;;;;;;;;;;;;;;5089096;28;19995;-63
2021/12/12 07:55:01;;;;;;;;;;;;;;;;;;5080915;28;20662;-62
2021/12/12 07:57:27;;;;;;;;;;;;;;;;;;5087190;28;19913;-62
2021/12/12 07:59:53;;;;;;;;;;;;;;;;;;5089481;28;19912;-63
2021/12/12 08:02:18;;;;;;;;;;;;;;;;;;5087914;28;19923;-63
2021/12/12 08:04:43;;;;;;;;;;;;;;;;;;5086137;28;19919;-62
2021/12/12 08:07:08;;;;;;;;;;;;;;;;;;5084568;28;19919;-62
2021/12/12 08:09:33;;;;;;;;;;;;;;;;;;5082761;28;19916;-62
2021/12/12 08:11:58;;;;;;;;;;;;;;;;;;5086929;28;19920;-63
2021/12/12 08:14:23;;;;;;;;;;;;;;;;;;5079136;28;19919;-63
2021/12/12 08:16:48;;;;;;;;;;;;;;;;;;5071125;28;19958;-63
2021/12/12 08:19:13;;;;;;;;;;;;;;;;;;5080619;28;19924;-63
2021/12/12 08:21:38;;;;;;;;;;;;;;;;;;5082018;28;19920;-64
2021/12/12 08:24:03;;;;;;;;;;;;;;;;;;5079225;28;19912;-63
2021/12/12 08:26:29;;;;;;;;;;;;;;;;;;5080490;28;19959;-62
2021/12/12 08:28:54;;;;;;;;;;;;;;;;;;5081591;28;20668;-62
2021/12/12 08:31:19;;;;;;;;;;;;;;;;;;5076265;28;20444;-63
2021/12/12 08:33:44;;;;;;;;;;;;;;;;;;5070879;28;19966;-63
2021/12/12 08:36:09;;;;;;;;;;;;;;;;;;5074760;28;19920;-63
2021/12/12 08:38:34;;;;;;;;;;;;;;;;;;5075027;28;20274;-63
2021/12/12 08:40:59;;;;;;;;;;;;;;;;;;5075603;28;19920;-64
2021/12/12 08:43:24;;;;;;;;;;;;;;;;;;5072822;28;19932;-64
2021/12/12 08:45:49;;;;;;;;;;;;;;;;;;5076483;28;20014;-64
2021/12/12 08:48:16;;;;;;;;;;;;;;;;;;5075901;28;20301;-64
2021/12/12 08:50:41;;;;;;;;;;;;;;;;;;5072774;28;20284;-64
2021/12/12 08:53:06;;;;;;;;;;;;;;;;;;5073125;28;20280;-65
2021/12/12 08:55:34;;;;;;;;;;;;;;;;;;5073399;28;19916;-64
2021/12/12 08:58:14;;;;;;;;;;;;;;;;;;5076323;28;20380;-64
2021/12/12 09:00:39;;;;;;;;;;;;;;;;;;5066836;28;20292;-64
2021/12/12 09:03:04;;;;;;;;;;;;;;;;;;5068271;28;21107;-64
2021/12/12 09:05:29;;;;;;;;;;;;;;;;;;5074264;28;19967;-64
2021/12/12 09:07:54;;;;;;;;;;;;;;;;;;5074082;28;19969;-64
2021/12/12 09:10:21;;;;;;;;;;;;;;;;;;5058109;28;19917;-65
2021/12/12 09:12:46;;;;;;;;;;;;;;;;;;5071468;28;19920;-64
2021/12/12 09:15:11;;;;;;;;;;;;;;;;;;5073407;28;19916;-64
2021/12/12 09:17:36;;;;;;;;;;;;;;;;;;5072920;28;19920;-63
2021/12/12 09:20:03;;;;;;;;;;;;;;;;;;5071953;28;19991;-64
2021/12/12 09:22:30;;;;;;;;;;;;;;;;;;5068590;28;19916;-63
2021/12/12 09:24:55;;;;;;;;;;;;;;;;;;5079013;28;20043;-63
2021/12/12 09:27:20;;;;;;;;;;;;;;;;;;5073529;28;20494;-63
2021/12/12 09:29:46;;;;;;;;;;;;;;;;;;5074673;28;19916;-64
2021/12/12 09:32:11;;;;;;;;;;;;;;;;;;5076534;28;20364;-64
2021/12/12 09:34:36;;;;;;;;;;;;;;;;;;5076298;28;20402;-62
2021/12/12 09:37:01;;;;;;;;;;;;;;;;;;5075163;28;20003;-63
2021/12/12 09:39:26;;;;;;;;;;;;;;;;;;5077587;28;19920;-64
2021/12/12 09:41:52;;;;;;;;;;;;;;;;;;5073469;28;20037;-64
2021/12/12 09:44:17;;;;;;;;;;;;;;;;;;5056083;28;19912;-64
2021/12/12 09:46:55;;;;;;;;;;;;;;;;;;5067835;28;19927;-63
2021/12/12 09:52:04;;;;;;;;;;;;;;;;;;5069346;28;20658;-62
2021/12/12 09:54:29;;;;;;;;;;;;;;;;;;5070376;28;19916;-64
2021/12/12 09:56:56;;;;;;;;;;;;;;;;;;5072968;28;19919;-62
2021/12/12 09:59:21;;;;;;;;;;;;;;;;;;5079199;28;19912;-62
2021/12/12 10:01:46;;;;;;;;;;;;;;;;;;5079632;28;19924;-63
2021/12/12 10:04:11;;;;;;;;;;;;;;;;;;5083391;28;20011;-63
2021/12/12 10:06:36;;;;;;;;;;;;;;;;;;5076479;28;19947;-62
2021/12/12 10:09:01;;;;;;;;;;;;;;;;;;5074782;28;20171;-62
2021/12/12 10:11:26;;;;;;;;;;;;;;;;;;5079120;28;19961;-62
2021/12/12 10:13:51;;;;;;;;;;;;;;;;;;5073721;28;19951;-62
2021/12/12 10:16:16;;;;;;;;;;;;;;;;;;5076578;28;19916;-62
2021/12/12 10:18:42;;;;;;;;;;;;;;;;;;5081509;28;19916;-61
2021/12/12 10:21:07;;;;;;;;;;;;;;;;;;5079898;28;20030;-63
2021/12/12 10:23:33;;;;;;;;;;;;;;;;;;5080636;28;20014;-62
2021/12/12 10:25:59;;;;;;;;;;;;;;;;;;5077569;28;19916;-62
2021/12/12 10:28:24;;;;;;;;;;;;;;;;;;5080834;28;19955;-64
2021/12/12 10:30:50;;;;;;;;;;;;;;;;;;5079736;28;19919;-63
2021/12/12 10:33:15;;;;;;;;;;;;;;;;;;5086408;28;19920;-64
2021/12/12 10:35:40;;;;;;;;;;;;;;;;;;5084342;28;19934;-64
2021/12/12 10:38:05;;;;;;;;;;;;;;;;;;5085369;28;19912;-64
2021/12/12 10:40:30;;;;;;;;;;;;;;;;;;5083587;28;19974;-63
2021/12/12 10:42:55;;;;;;;;;;;;;;;;;;5081494;28;19924;-64
2021/12/12 10:45:21;;;;;;;;;;;;;;;;;;5082916;28;19928;-64
2021/12/12 10:47:46;;;;;;;;;;;;;;;;;;5081185;28;19920;-64
2021/12/12 10:50:11;;;;;;;;;;;;;;;;;;5083443;28;20418;-64
2021/12/12 10:52:36;;;;;;;;;;;;;;;;;;5084586;28;19970;-64
2021/12/12 10:55:01;;;;;;;;;;;;;;;;;;5083652;28;20360;-64
2021/12/12 10:57:26;;;;;;;;;;;;;;;;;;5082984;28;19969;-64
2021/12/12 10:59:52;;;;;;;;;;;;;;;;;;5082180;28;19924;-64
2021/12/12 11:02:17;;;;;;;;;;;;;;;;;;5084717;28;20007;-64
2021/12/12 11:04:42;;;;;;;;;;;;;;;;;;5083911;28;19965;-64
2021/12/12 11:07:07;;;;;;;;;;;;;;;;;;5080861;28;20375;-64
2021/12/12 11:09:34;;;;;;;;;;;;;;;;;;5087104;28;19943;-64
2021/12/12 11:11:59;;;;;;;;;;;;;;;;;;5084286;28;20368;-64
2021/12/12 11:14:24;;;;;;;;;;;;;;;;;;5089906;28;19912;-64
2021/12/12 11:16:49;;;;;;;;;;;;;;;;;;5089925;28;19920;-64
2021/12/12 11:19:14;;;;;;;;;;;;;;;;;;5082930;28;19924;-63
2021/12/12 11:21:39;;;;;;;;;;;;;;;;;;5090984;28;19916;-63
2021/12/12 11:24:05;;;;;;;;;;;;;;;;;;5091313;28;20472;-64
2021/12/12 11:26:30;;;;;;;;;;;;;;;;;;5086646;28;19919;-64
2021/12/12 11:28:55;;;;;;;;;;;;;;;;;;5089391;28;19923;-64
2021/12/12 11:31:20;;;;;;;;;;;;;;;;;;5089578;28;19920;-63
2021/12/12 11:33:45;;;;;;;;;;;;;;;;;;5081451;28;20007;-63
2021/12/12 11:36:12;;;;;;;;;;;;;;;;;;5083671;28;19912;-63
2021/12/12 11:38:37;;;;;;;;;;;;;;;;;;5081082;28;19920;-65
2021/12/12 11:41:02;;;;;;;;;;;;;;;;;;5079196;28;19916;-64
2021/12/12 11:43:27;;;;;;;;;;;;;;;;;;5079479;28;19918;-64
2021/12/12 11:45:52;;;;;;;;;;;;;;;;;;5084468;28;20383;-64
2021/12/12 11:48:17;;;;;;;;;;;;;;;;;;5085890;28;19912;-64
2021/12/12 11:50:46;;;;;;;;;;;;;;;;;;5074189;28;20449;-64
2021/12/12 11:53:11;;;;;;;;;;;;;;;;;;5080649;28;19955;-64
2021/12/12 11:55:36;;;;;;;;;;;;;;;;;;5085443;28;20370;-64
2021/12/12 11:58:01;;;;;;;;;;;;;;;;;;5081920;28;19912;-64
2021/12/12 12:00:26;;;;;;;;;;;;;;;;;;5083506;28;19912;-64
2021/12/12 12:02:52;;;;;;;;;;;;;;;;;;5079366;28;19924;-63
2021/12/12 12:05:17;;;;;;;;;;;;;;;;;;5085937;28;19912;-63
2021/12/12 12:07:42;;;;;;;;;;;;;;;;;;5080829;28;19912;-63
2021/12/12 12:10:08;;;;;;;;;;;;;;;;;;5086159;28;19916;-64
2021/12/12 12:12:33;;;;;;;;;;;;;;;;;;5088041;28;19995;-64
2021/12/12 12:14:58;;;;;;;;;;;;;;;;;;5087765;28;19912;-63
2021/12/12 12:17:23;;;;;;;;;;;;;;;;;;5086632;28;19916;-63
2021/12/12 12:19:48;;;;;;;;;;;;;;;;;;5089009;28;19998;-63
2021/12/12 12:22:13;;;;;;;;;;;;;;;;;;5087256;28;19916;-63
2021/12/12 12:24:42;;;;;;;;;;;;;;;;;;5088918;28;19919;-63
2021/12/12 12:27:07;;;;;;;;;;;;;;;;;;5084429;28;20267;-64
2021/12/12 12:29:33;;;;;;;;;;;;;;;;;;5085648;28;20327;-64
2021/12/12 12:31:58;;;;;;;;;;;;;;;;;;5081476;28;20041;-64
2021/12/12 12:34:23;;;;;;;;;;;;;;;;;;5073648;28;20042;-64
2021/12/12 12:36:48;;;;;;;;;;;;;;;;;;5080292;28;19924;-63
2021/12/12 12:39:13;;;;;;;;;;;;;;;;;;5080236;28;20003;-63
2021/12/12 12:41:38;;;;;;;;;;;;;;;;;;5078455;28;20053;-63
2021/12/12 12:44:03;;;;;;;;;;;;;;;;;;5077570;28;20121;-63
2021/12/12 12:46:29;;;;;;;;;;;;;;;;;;5080711;28;20602;-64
2021/12/12 12:48:54;;;;;;;;;;;;;;;;;;5077925;28;19916;-64
2021/12/12 12:51:19;;;;;;;;;;;;;;;;;;5075723;28;19912;-63
2021/12/12 12:53:44;;;;;;;;;;;;;;;;;;5073833;28;19959;-63
2021/12/12 12:56:09;;;;;;;;;;;;;;;;;;5074217;28;20281;-63
2021/12/12 12:58:34;;;;;;;;;;;;;;;;;;5079848;28;19923;-63
2021/12/12 13:00:59;;;;;;;;;;;;;;;;;;5079051;28;20373;-63
2021/12/12 13:03:24;;;;;;;;;;;;;;;;;;5077633;28;19920;-63
2021/12/12 13:05:49;;;;;;;;;;;;;;;;;;5076470;28;19916;-63
2021/12/12 13:08:15;;;;;;;;;;;;;;;;;;5077357;28;20483;-63
2021/12/12 13:10:40;;;;;;;;;;;;;;;;;;5079125;28;19946;-63
2021/12/12 13:13:05;;;;;;;;;;;;;;;;;;5081353;28;19993;-63
2021/12/12 13:15:30;;;;;;;;;;;;;;;;;;5078118;28;20015;-63
2021/12/12 13:17:56;;;;;;;;;;;;;;;;;;5076915;28;19998;-63
2021/12/12 13:20:21;;;;;;;;;;;;;;;;;;5076600;28;20409;-63
2021/12/12 13:22:47;;;;;;;;;;;;;;;;;;5076789;28;20280;-63
2021/12/12 13:25:14;;;;;;;;;;;;;;;;;;5074055;28;19920;-64
2021/12/12 13:27:55;;;;;;;;;;;;;;;;;;5076519;28;19965;-64
2021/12/12 13:30:28;;;;;;;;;;;;;;;;;;5078150;28;20047;-63
2021/12/12 13:32:53;;;;;;;;;;;;;;;;;;5071916;28;19966;-63
2021/12/12 13:35:18;;;;;;;;;;;;;;;;;;5061371;28;19925;-63
2021/12/12 13:37:43;;;;;;;;;;;;;;;;;;5078699;28;19916;-64
2021/12/12 13:40:08;;;;;;;;;;;;;;;;;;5079881;28;19920;-63
2021/12/12 13:42:33;;;;;;;;;;;;;;;;;;5076720;28;19916;-64
2021/12/12 13:44:58;;;;;;;;;;;;;;;;;;5068223;28;20002;-66
2021/12/12 13:47:23;;;;;;;;;;;;;;;;;;5075990;28;20015;-66
2021/12/12 13:49:48;;;;;;;;;;;;;;;;;;5076675;28;19917;-66
2021/12/12 13:52:13;;;;;;;;;;;;;;;;;;5075747;28;19912;-66
2021/12/12 13:54:38;;;;;;;;;;;;;;;;;;5077708;28;19920;-66
2021/12/12 13:57:03;;;;;;;;;;;;;;;;;;5077389;28;20039;-66
2021/12/12 13:59:28;;;;;;;;;;;;;;;;;;5072032;28;19966;-66
2021/12/12 14:01:54;;;;;;;;;;;;;;;;;;5077009;28;19917;-66
2021/12/12 14:04:19;;;;;;;;;;;;;;;;;;5075179;28;19912;-67
2021/12/12 14:06:44;;;;;;;;;;;;;;;;;;5077263;28;19920;-67
2021/12/12 14:09:09;;;;;;;;;;;;;;;;;;5078491;28;19919;-66
2021/12/12 14:11:34;;;;;;;;;;;;;;;;;;5080017;28;19920;-66
2021/12/12 14:13:59;;;;;;;;;;;;;;;;;;5067841;28;19920;-66
2021/12/12 14:16:26;;;;;;;;;;;;;;;;;;5071988;28;19981;-66
2021/12/12 14:18:51;;;;;;;;;;;;;;;;;;5076769;28;20432;-66
2021/12/12 14:21:16;;;;;;;;;;;;;;;;;;5067801;28;20011;-66
2021/12/12 14:23:41;;;;;;;;;;;;;;;;;;5075660;28;19981;-65
2021/12/12 14:26:06;;;;;;;;;;;;;;;;;;5077217;28;19962;-66
2021/12/12 14:28:31;;;;;;;;;;;;;;;;;;5074650;28;19982;-66
2021/12/12 14:30:56;;;;;;;;;;;;;;;;;;5082131;28;19920;-66
2021/12/12 14:33:21;;;;;;;;;;;;;;;;;;5080508;28;19958;-66
2021/12/12 14:35:46;;;;;;;;;;;;;;;;;;5072681;28;20316;-66
2021/12/12 14:38:11;;;;;;;;;;;;;;;;;;5078031;28;19920;-67
2021/12/12 14:40:36;;;;;;;;;;;;;;;;;;5074986;28;19934;-67
2021/12/12 14:43:01;;;;;;;;;;;;;;;;;;5078248;28;19924;-66
2021/12/12 14:45:26;;;;;;;;;;;;;;;;;;5080789;28;20003;-65
2021/12/12 14:47:51;;;;;;;;;;;;;;;;;;5080203;28;20050;-66
2021/12/12 14:50:17;;;;;;;;;;;;;;;;;;5087148;28;20284;-66
2021/12/12 14:52:42;;;;;;;;;;;;;;;;;;5084343;28;19921;-65
2021/12/12 14:55:07;;;;;;;;;;;;;;;;;;5086757;28;19962;-65
2021/12/12 14:57:33;;;;;;;;;;;;;;;;;;5088532;28;19916;-66
2021/12/12 14:59:58;;;;;;;;;;;;;;;;;;5086649;28;20288;-66
2021/12/12 15:02:23;;;;;;;;;;;;;;;;;;5085385;28;20280;-66
2021/12/12 15:04:48;;;;;;;;;;;;;;;;;;5088783;28;19966;-66
2021/12/12 15:07:13;;;;;;;;;;;;;;;;;;5093361;28;20303;-66
2021/12/12 15:09:38;;;;;;;;;;;;;;;;;;5085658;28;20286;-66
2021/12/12 15:12:03;;;;;;;;;;;;;;;;;;5077808;28;19923;-65
2021/12/12 15:14:28;;;;;;;;;;;;;;;;;;5085324;28;19920;-65
2021/12/12 15:16:53;;;;;;;;;;;;;;;;;;5087308;28;20429;-65
2021/12/12 15:19:18;;;;;;;;;;;;;;;;;;5084272;28;19955;-65
2021/12/12 15:21:44;;;;;;;;;;;;;;;;;;5081460;28;19970;-65
2021/12/12 15:24:09;;;;;;;;;;;;;;;;;;5083568;28;20352;-66
2021/12/12 15:26:35;;;;;;;;;;;;;;;;;;5084195;28;19931;-66
2021/12/12 15:29:00;;;;;;;;;;;;;;;;;;5082607;28;20300;-66
2021/12/12 15:31:25;;;;;;;;;;;;;;;;;;5086071;28;19965;-66
2021/12/12 15:33:51;;;;;;;;;;;;;;;;;;5085993;28;20417;-66
2021/12/12 15:36:16;;;;;;;;;;;;;;;;;;5085454;28;20374;-66
2021/12/12 15:38:42;;;;;;;;;;;;;;;;;;5083666;28;20007;-66
2021/12/12 15:41:07;;;;;;;;;;;;;;;;;;5054749;28;19916;-65
2021/12/12 15:43:32;;;;;;;;;;;;;;;;;;5073580;28;19920;-65
2021/12/12 15:45:57;;;;;;;;;;;;;;;;;;5080128;28;20019;-65
2021/12/12 15:48:29;;;;;;;;;;;;;;;;;;5078924;28;20768;-65
2021/12/12 15:50:54;;;;;;;;;;;;;;;;;;5077707;28;19966;-65
2021/12/12 15:53:19;;;;;;;;;;;;;;;;;;5077616;28;19917;-65
2021/12/12 15:55:44;;;;;;;;;;;;;;;;;;5076947;28;19916;-65
2021/12/12 15:58:09;;;;;;;;;;;;;;;;;;5079500;28;20010;-65
2021/12/12 16:00:34;;;;;;;;;;;;;;;;;;5073656;28;20000;-65
2021/12/12 16:02:59;;;;;;;;;;;;;;;;;;5081436;28;20528;-68
2021/12/12 16:05:24;;;;;;;;;;;;;;;;;;5080708;28;19912;-64
2021/12/12 16:07:49;;;;;;;;;;;;;;;;;;5077322;28;20436;-65
2021/12/12 16:10:14;;;;;;;;;;;;;;;;;;5078406;28;19912;-67
2021/12/12 16:12:39;;;;;;;;;;;;;;;;;;5077573;28;19920;-65
2021/12/12 16:15:04;;;;;;;;;;;;;;;;;;5074547;28;19917;-64
2021/12/12 16:17:30;;;;;;;;;;;;;;;;;;5074766;28;19912;-65
2021/12/12 16:19:55;;;;;;;;;;;;;;;;;;5084332;28;19927;-65
2021/12/12 16:22:20;;;;;;;;;;;;;;;;;;5073853;28;19920;-65
2021/12/12 16:24:46;;;;;;;;;;;;;;;;;;5080250;28;20454;-65
2021/12/12 16:27:11;;;;;;;;;;;;;;;;;;5058753;28;19952;-64
2021/12/12 16:29:36;;;;;;;;;;;;;;;;;;5077682;28;19969;-65
2021/12/12 16:32:01;;;;;;;;;;;;;;;;;;5069964;28;20015;-65
2021/12/12 16:34:26;;;;;;;;;;;;;;;;;;5068746;28;20447;-65
2021/12/12 16:36:51;;;;;;;;;;;;;;;;;;5060291;28;19924;-65
2021/12/12 16:39:18;;;;;;;;;;;;;;;;;;5058946;28;20378;-65
2021/12/12 16:41:43;;;;;;;;;;;;;;;;;;5050262;28;20011;-65
2021/12/12 16:44:08;;;;;;;;;;;;;;;;;;5048308;28;20016;-65
2021/12/12 16:46:33;;;;;;;;;;;;;;;;;;5046088;28;20081;-65
2021/12/12 16:48:58;;;;;;;;;;;;;;;;;;5056667;28;19958;-66
2021/12/12 16:51:25;;;;;;;;;;;;;;;;;;5042551;28;20580;-64
2021/12/12 16:53:50;;;;;;;;;;;;;;;;;;5059624;28;19917;-65